Time;durP1;ratioP1;P1;durP2;ratioP2;P2;SDS_P1;SDS_P2;PMS_P1;PMS_P2;Temp;Humidity;BMP_temperature;BMP_pressure;BME280_temperature;BME280_humidity;BME280_pressure;Samples;Min_cycle;Max_cycle;Signal;HPM_P1;HPM_P2
2022/03/03 00:00:05;;;;;;;0.50;0.50;;;;;;;;;;4985906;28;20041;-81
2022/03/03 00:02:31;;;;;;;1.42;1.33;;;;;;;;;;4982425;28;20548;-78
2022/03/03 00:04:58;;;;;;;0.90;0.90;;;;;;;;;;4984780;28;20030;-77
2022/03/03 00:07:28;;;;;;;0.93;0.93;;;;;;;;;;4980791;28;20050;-82
2022/03/03 00:09:59;;;;;;;0.80;0.73;;;;;;;;;;4990877;28;20377;-79
2022/03/03 00:12:24;;;;;;;1.42;1.33;;;;;;;;;;4981140;28;20030;-80
2022/03/03 00:14:52;;;;;;;2.47;0.95;;;;;;;;;;4986358;28;20057;-81
2022/03/03 00:17:17;;;;;;;0.65;0.65;;;;;;;;;;4986329;28;20665;-82
2022/03/03 00:19:45;;;;;;;0.65;0.65;;;;;;;;;;4989706;28;20125;-79
2022/03/03 00:22:11;;;;;;;0.30;0.30;;;;;;;;;;4992097;28;20061;-80
2022/03/03 00:24:39;;;;;;;1.20;1.15;;;;;;;;;;4988807;28;20065;-79
2022/03/03 00:27:06;;;;;;;0.70;0.70;;;;;;;;;;4998699;28;20058;-79
2022/03/03 00:29:31;;;;;;;1.27;1.27;;;;;;;;;;4992766;28;20026;-80
2022/03/03 00:31:57;;;;;;;0.13;0.13;;;;;;;;;;4992781;28;20104;-81
2022/03/03 00:34:22;;;;;;;1.50;1.13;;;;;;;;;;4992639;28;20113;-80
2022/03/03 00:36:47;;;;;;;0.75;0.75;;;;;;;;;;4993934;28;20109;-81
2022/03/03 00:39:13;;;;;;;0.50;0.50;;;;;;;;;;4994647;28;20114;-78
2022/03/03 00:41:38;;;;;;;0.65;0.65;;;;;;;;;;4994780;28;20029;-79
2022/03/03 00:44:06;;;;;;;0.43;0.43;;;;;;;;;;4993334;28;20030;-80
2022/03/03 00:46:33;;;;;;;1.55;1.45;;;;;;;;;;4993937;28;20450;-80
2022/03/03 00:48:59;;;;;;;0.17;0.17;;;;;;;;;;4994777;28;20022;-80
2022/03/03 00:51:27;;;;;;;1.45;1.13;;;;;;;;;;4993962;28;20030;-80
2022/03/03 00:53:54;;;;;;;0.40;0.35;;;;;;;;;;4994693;28;20072;-80
2022/03/03 00:56:20;;;;;;;1.80;1.67;;;;;;;;;;4994693;28;20480;-77
2022/03/03 00:58:46;;;;;;;0.40;0.40;;;;;;;;;;4994629;28;20030;-79
2022/03/03 01:01:11;;;;;;;2.60;1.85;;;;;;;;;;4994455;28;20027;-80
2022/03/03 01:03:36;;;;;;;0.55;0.55;;;;;;;;;;4993214;28;20025;-79
2022/03/03 01:06:02;;;;;;;0.98;0.98;;;;;;;;;;4994780;28;20062;-80
2022/03/03 01:08:28;;;;;;;1.30;1.25;;;;;;;;;;4993752;28;20034;-80
2022/03/03 01:10:53;;;;;;;1.05;0.93;;;;;;;;;;4993814;28;20034;-79
2022/03/03 01:13:20;;;;;;;0.47;0.47;;;;;;;;;;4994726;28;20022;-79
2022/03/03 01:15:45;;;;;;;1.75;1.65;;;;;;;;;;4989197;28;20026;-78
2022/03/03 01:18:13;;;;;;;0.30;0.30;;;;;;;;;;4995941;28;20037;-80
2022/03/03 01:20:43;;;;;;;0.22;0.22;;;;;;;;;;4993267;28;20509;-80
2022/03/03 01:23:11;;;;;;;0.50;0.50;;;;;;;;;;4987280;28;20015;-80
2022/03/03 01:25:39;;;;;;;0.65;0.65;;;;;;;;;;4991362;28;20027;-79
2022/03/03 01:28:04;;;;;;;1.13;1.02;;;;;;;;;;4998653;28;20441;-79
2022/03/03 01:30:30;;;;;;;2.17;1.75;;;;;;;;;;4980925;28;20069;-80
2022/03/03 01:32:58;;;;;;;0.85;0.85;;;;;;;;;;4997779;28;20042;-78
2022/03/03 01:35:23;;;;;;;0.95;0.95;;;;;;;;;;4996271;28;20671;-78
2022/03/03 01:37:51;;;;;;;0.77;0.77;;;;;;;;;;4997595;28;20038;-79
2022/03/03 01:40:22;;;;;;;0.73;0.63;;;;;;;;;;4998398;28;20030;-78
2022/03/03 01:42:48;;;;;;;0.30;0.30;;;;;;;;;;4997562;28;20516;-78
2022/03/03 01:45:14;;;;;;;1.63;1.52;;;;;;;;;;4997907;28;20228;-80
2022/03/03 01:47:41;;;;;;;1.73;1.58;;;;;;;;;;4996271;28;20034;-80
2022/03/03 01:50:07;;;;;;;0.90;0.90;;;;;;;;;;4991886;28;20034;-80
2022/03/03 01:52:33;;;;;;;0.65;0.65;;;;;;;;;;4997013;28;20014;-79
2022/03/03 01:54:59;;;;;;;2.15;1.98;;;;;;;;;;4997462;28;20037;-80
2022/03/03 01:57:26;;;;;;;0.82;0.82;;;;;;;;;;4997165;28;20026;-79
2022/03/03 01:59:52;;;;;;;0.30;0.30;;;;;;;;;;4996979;28;20030;-80
2022/03/03 02:02:17;;;;;;;0.65;0.65;;;;;;;;;;4997483;28;20457;-80
2022/03/03 02:04:45;;;;;;;0.10;0.10;;;;;;;;;;4996849;28;20418;-78
2022/03/03 02:07:13;;;;;;;1.02;1.02;;;;;;;;;;4995922;28;20031;-79
2022/03/03 02:09:40;;;;;;;1.23;1.13;;;;;;;;;;4996594;28;20022;-80
2022/03/03 02:12:08;;;;;;;0.20;0.20;;;;;;;;;;4997533;28;20114;-80
2022/03/03 02:14:44;;;;;;;1.50;1.40;;;;;;;;;;4996233;28;20034;-80
2022/03/03 02:17:12;;;;;;;1.45;1.35;;;;;;;;;;4996344;28;20030;-79
2022/03/03 02:19:38;;;;;;;0.80;0.80;;;;;;;;;;4991249;28;20434;-79
2022/03/03 02:22:04;;;;;;;2.03;1.92;;;;;;;;;;4996228;28;20022;-79
2022/03/03 02:24:30;;;;;;;2.08;1.92;;;;;;;;;;4997220;28;20018;-79
2022/03/03 02:27:07;;;;;;;1.45;1.35;;;;;;;;;;4996437;28;20465;-80
2022/03/03 02:29:36;;;;;;;0.63;0.63;;;;;;;;;;4996747;28;20154;-79
2022/03/03 02:32:03;;;;;;;1.05;1.05;;;;;;;;;;4995872;28;20026;-79
2022/03/03 02:34:28;;;;;;;0.03;0.03;;;;;;;;;;4996959;28;20037;-77
2022/03/03 02:36:54;;;;;;;0.75;0.63;;;;;;;;;;4994685;28;20030;-80
2022/03/03 02:39:19;;;;;;;0.20;0.20;;;;;;;;;;4996033;28;20033;-80
2022/03/03 02:41:47;;;;;;;0.75;0.75;;;;;;;;;;4979819;28;20018;-80
2022/03/03 02:44:12;;;;;;;0.55;0.43;;;;;;;;;;4995291;28;20037;-79
2022/03/03 02:46:40;;;;;;;0.55;0.55;;;;;;;;;;4996391;28;20022;-80
2022/03/03 02:49:06;;;;;;;1.85;0.77;;;;;;;;;;4990626;28;20022;-79
2022/03/03 02:51:31;;;;;;;3.00;1.63;;;;;;;;;;4995820;28;20018;-78
2022/03/03 02:53:57;;;;;;;0.20;0.20;;;;;;;;;;4996574;28;20120;-79
2022/03/03 02:56:25;;;;;;;0.40;0.40;;;;;;;;;;4996754;28;20034;-79
2022/03/03 02:58:50;;;;;;;0.30;0.30;;;;;;;;;;4995786;28;20037;-80
2022/03/03 03:01:15;;;;;;;0.40;0.40;;;;;;;;;;4992391;28;20484;-78
2022/03/03 03:03:43;;;;;;;1.35;1.23;;;;;;;;;;4995258;28;20037;-79
2022/03/03 03:06:14;;;;;;;0.05;0.05;;;;;;;;;;4995545;28;20022;-79
2022/03/03 03:08:40;;;;;;;2.28;1.73;;;;;;;;;;4996215;28;20039;-79
2022/03/03 03:11:09;;;;;;;1.00;0.98;;;;;;;;;;4995450;28;20034;-79
2022/03/03 03:13:37;;;;;;;0.32;0.32;;;;;;;;;;4996384;28;20094;-79
2022/03/03 03:16:05;;;;;;;1.50;1.40;;;;;;;;;;4996057;28;20022;-81
2022/03/03 03:18:30;;;;;;;0.45;0.45;;;;;;;;;;4996308;28;20030;-80
2022/03/03 03:20:58;;;;;;;1.08;0.93;;;;;;;;;;4996407;28;20026;-78
2022/03/03 03:23:26;;;;;;;0.68;0.68;;;;;;;;;;4996448;28;20037;-80
2022/03/03 03:25:55;;;;;;;1.13;1.10;;;;;;;;;;4996128;28;20034;-80
2022/03/03 03:28:21;;;;;;;0.85;0.85;;;;;;;;;;4995098;28;20030;-79
2022/03/03 03:30:47;;;;;;;0.70;0.70;;;;;;;;;;4995751;28;20027;-80
2022/03/03 03:33:12;;;;;;;0.30;0.30;;;;;;;;;;4995035;28;20018;-79
2022/03/03 03:35:38;;;;;;;1.98;1.77;;;;;;;;;;4996057;28;20033;-80
2022/03/03 03:38:03;;;;;;;5.85;1.02;;;;;;;;;;4995814;28;20414;-80
2022/03/03 03:40:29;;;;;;;0.25;0.25;;;;;;;;;;4978709;28;20048;-81
2022/03/03 03:42:54;;;;;;;0.52;0.52;;;;;;;;;;4995803;28;20030;-80
2022/03/03 03:45:23;;;;;;;0.38;0.38;;;;;;;;;;4994308;28;20116;-79
2022/03/03 03:47:48;;;;;;;0.38;0.38;;;;;;;;;;4995029;28;20083;-78
2022/03/03 03:50:14;;;;;;;1.02;0.93;;;;;;;;;;4995783;28;20030;-80
2022/03/03 03:52:42;;;;;;;0.60;0.60;;;;;;;;;;4995446;28;20036;-79
2022/03/03 03:55:09;;;;;;;0.80;0.80;;;;;;;;;;4994736;28;20022;-79
2022/03/03 03:57:35;;;;;;;0.55;0.55;;;;;;;;;;4994763;28;20140;-79
2022/03/03 04:00:02;;;;;;;1.25;1.25;;;;;;;;;;4994813;28;20097;-79
2022/03/03 04:02:29;;;;;;;1.17;1.13;;;;;;;;;;4995907;28;20046;-80
2022/03/03 04:04:55;;;;;;;0.60;0.57;;;;;;;;;;4995745;28;20034;-80
2022/03/03 04:07:20;;;;;;;0.45;0.45;;;;;;;;;;4995651;28;20409;-78
2022/03/03 04:09:48;;;;;;;0.20;0.20;;;;;;;;;;4996534;28;20520;-80
2022/03/03 04:12:13;;;;;;;1.10;1.08;;;;;;;;;;4995619;28;20018;-80
2022/03/03 04:14:41;;;;;;;0.63;0.52;;;;;;;;;;4994323;28;20037;-80
2022/03/03 04:17:07;;;;;;;0.10;0.10;;;;;;;;;;4998168;28;20022;-80
2022/03/03 04:19:37;;;;;;;0.70;0.70;;;;;;;;;;4994216;28;20034;-77
2022/03/03 04:22:02;;;;;;;1.23;1.15;;;;;;;;;;4994328;28;20022;-80
2022/03/03 04:24:28;;;;;;;0.25;0.25;;;;;;;;;;4994993;28;20044;-80
2022/03/03 04:26:54;;;;;;;0.47;0.47;;;;;;;;;;4995290;28;20037;-79
2022/03/03 04:29:22;;;;;;;0.38;0.38;;;;;;;;;;4993358;28;20065;-80
2022/03/03 04:31:51;;;;;;;0.30;0.30;;;;;;;;;;4994666;28;20339;-79
2022/03/03 04:34:17;;;;;;;1.27;1.17;;;;;;;;;;4991999;28;20346;-79
2022/03/03 04:36:42;;;;;;;0.50;0.50;;;;;;;;;;4977732;28;20026;-79
2022/03/03 04:39:08;;;;;;;0.40;0.40;;;;;;;;;;4994919;28;20461;-79
2022/03/03 04:41:39;;;;;;;0.68;0.68;;;;;;;;;;4994759;28;20066;-79
2022/03/03 04:44:04;;;;;;;3.97;0.63;;;;;;;;;;4994711;28;20037;-80
2022/03/03 04:46:32;;;;;;;0.57;0.57;;;;;;;;;;4993725;28;20030;-80
2022/03/03 04:49:01;;;;;;;0.30;0.30;;;;;;;;;;4993899;28;20125;-79
2022/03/03 04:51:27;;;;;;;0.05;0.05;;;;;;;;;;4994737;28;20109;-79
2022/03/03 04:53:52;;;;;;;1.92;1.35;;;;;;;;;;4994752;28;20122;-79
2022/03/03 04:56:18;;;;;;;0.50;0.50;;;;;;;;;;4993618;28;20157;-80
2022/03/03 04:58:44;;;;;;;0.25;0.25;;;;;;;;;;4993763;28;20473;-79
2022/03/03 05:01:12;;;;;;;0.93;0.90;;;;;;;;;;4989147;28;20030;-80
2022/03/03 05:03:38;;;;;;;0.50;0.50;;;;;;;;;;4988010;28;20516;-77
2022/03/03 05:06:06;;;;;;;0.45;0.45;;;;;;;;;;4993765;28;20034;-80
2022/03/03 05:08:31;;;;;;;0.10;0.10;;;;;;;;;;4993365;28;20096;-79
2022/03/03 05:10:56;;;;;;;0.70;0.70;;;;;;;;;;4993377;28;20057;-79
2022/03/03 05:13:27;;;;;;;0.52;0.52;;;;;;;;;;4994085;28;20109;-80
2022/03/03 05:15:54;;;;;;;0.20;0.20;;;;;;;;;;4994297;28;20169;-79
2022/03/03 05:18:22;;;;;;;0.30;0.30;;;;;;;;;;4993925;28;20346;-80
2022/03/03 05:20:47;;;;;;;0.45;0.45;;;;;;;;;;4994268;28;20472;-79
2022/03/03 05:23:13;;;;;;;0.65;0.50;;;;;;;;;;4994287;28;20026;-78
2022/03/03 05:25:39;;;;;;;0.47;0.47;;;;;;;;;;4993363;28;20022;-78
2022/03/03 05:28:04;;;;;;;0.30;0.15;;;;;;;;;;4994015;28;20038;-79
2022/03/03 05:30:29;;;;;;;4.13;1.08;;;;;;;;;;4994194;28;20038;-79
2022/03/03 05:32:55;;;;;;;0.68;0.68;;;;;;;;;;4994081;28;20019;-80
2022/03/03 05:35:23;;;;;;;0.80;0.80;;;;;;;;;;4992978;28;20041;-79
2022/03/03 05:37:48;;;;;;;1.05;0.88;;;;;;;;;;4994216;28;20022;-79
2022/03/03 05:40:15;;;;;;;1.50;1.40;;;;;;;;;;4994121;28;20430;-80
2022/03/03 05:42:40;;;;;;;0.82;0.82;;;;;;;;;;4993751;28;20034;-79
2022/03/03 05:45:06;;;;;;;0.40;0.40;;;;;;;;;;4992625;28;20033;-82
2022/03/03 05:47:33;;;;;;;0.43;0.43;;;;;;;;;;4986369;28;20035;-81
2022/03/03 05:50:03;;;;;;;1.08;1.00;;;;;;;;;;4994260;28;20054;-81
2022/03/03 05:52:33;;;;;;;1.65;1.55;;;;;;;;;;4993262;28;20045;-80
2022/03/03 05:55:01;;;;;;;0.40;0.40;;;;;;;;;;4993111;28;20027;-80
2022/03/03 05:57:35;;;;;;;0.28;0.28;;;;;;;;;;4994116;28;20045;-82
2022/03/03 06:00:15;;;;;;;3.40;1.98;;;;;;;;;;4994417;28;20117;-83
2022/03/03 06:02:57;;;;;;;0.28;0.28;;;;;;;;;;4994084;28;20418;-82
2022/03/03 06:05:24;;;;;;;0.52;0.30;;;;;;;;;;4994064;28;20065;-84
2022/03/03 06:07:52;;;;;;;0.45;0.45;;;;;;;;;;4975839;28;20058;-83
2022/03/03 06:10:26;;;;;;;0.25;0.25;;;;;;;;;;4994100;28;20033;-79
2022/03/03 06:13:02;;;;;;;0.73;0.73;;;;;;;;;;4996726;28;20354;-83
2022/03/03 06:15:29;;;;;;;0.32;0.32;;;;;;;;;;4991392;28;20034;-82
2022/03/03 06:17:54;;;;;;;0.60;0.60;;;;;;;;;;4997342;28;20042;-83
2022/03/03 06:20:20;;;;;;;0.52;0.52;;;;;;;;;;4996743;28;20026;-82
2022/03/03 06:22:47;;;;;;;0.55;0.55;;;;;;;;;;4996735;28;20022;-82
2022/03/03 06:25:13;;;;;;;1.23;1.13;;;;;;;;;;5000082;28;20409;-80
2022/03/03 06:27:45;;;;;;;0.15;0.15;;;;;;;;;;4979474;28;20022;-82
2022/03/03 06:30:11;;;;;;;;;;;;;;;;;;4996903;28;20045;-81
2022/03/03 06:32:36;;;;;;;1.55;0.98;;;;;;;;;;4996317;28;20268;-82
2022/03/03 06:35:03;;;;;;;1.48;1.38;;;;;;;;;;4996077;28;20354;-83
2022/03/03 06:37:31;;;;;;;0.88;0.88;;;;;;;;;;4997090;28;20030;-82
2022/03/03 06:39:57;;;;;;;0.30;0.30;;;;;;;;;;4997086;28;20030;-80
2022/03/03 06:42:22;;;;;;;3.22;1.45;;;;;;;;;;4995810;28;20026;-82
2022/03/03 06:44:47;;;;;;;0.22;0.22;;;;;;;;;;4996864;28;20507;-82
2022/03/03 06:47:16;;;;;;;0.82;0.38;;;;;;;;;;4996956;28;20433;-81
2022/03/03 06:49:41;;;;;;;0.80;0.80;;;;;;;;;;4996971;28;20030;-83
2022/03/03 06:52:07;;;;;;;0.57;0.57;;;;;;;;;;4995549;28;20474;-83
2022/03/03 06:54:35;;;;;;;0.52;0.52;;;;;;;;;;4995717;28;20037;-82
2022/03/03 06:57:01;;;;;;;0.70;0.70;;;;;;;;;;4997042;28;20038;-83
2022/03/03 06:59:28;;;;;;;0.20;0.20;;;;;;;;;;4996523;28;20042;-83
2022/03/03 07:01:55;;;;;;;0.73;0.73;;;;;;;;;;4995575;28;20034;-80
2022/03/03 07:04:23;;;;;;;0.75;0.75;;;;;;;;;;4996724;28;20022;-83
2022/03/03 07:06:49;;;;;;;1.65;1.55;;;;;;;;;;4996087;28;20022;-82
2022/03/03 07:09:15;;;;;;;0.65;0.65;;;;;;;;;;4996200;28;20034;-82
2022/03/03 07:11:42;;;;;;;0.80;0.80;;;;;;;;;;4975476;28;20049;-83
2022/03/03 07:14:10;;;;;;;0.60;0.60;;;;;;;;;;4994942;28;20054;-82
2022/03/03 07:16:40;;;;;;;0.63;0.63;;;;;;;;;;4995092;28;20381;-81
2022/03/03 07:19:12;;;;;;;0.82;0.82;;;;;;;;;;4995372;28;20022;-81
2022/03/03 07:21:46;;;;;;;1.40;1.33;;;;;;;;;;4970260;28;20109;-83
2022/03/03 07:24:33;;;;;;;0.93;0.85;;;;;;;;;;4991656;28;20041;-83
2022/03/03 07:27:07;;;;;;;1.83;1.48;;;;;;;;;;4995900;28;20057;-84
2022/03/03 07:29:37;;;;;;;1.30;1.30;;;;;;;;;;4994907;28;20038;-81
2022/03/03 07:32:07;;;;;;;2.42;1.50;;;;;;;;;;4996258;28;20035;-82
2022/03/03 07:34:37;;;;;;;0.80;0.55;;;;;;;;;;4995229;28;20026;-83
2022/03/03 07:37:12;;;;;;;0.75;0.60;;;;;;;;;;4996446;28;20033;-83
2022/03/03 07:39:44;;;;;;;1.13;1.10;;;;;;;;;;4995494;28;20026;-80
2022/03/03 07:42:17;;;;;;;2.05;0.98;;;;;;;;;;4995920;28;20031;-84
2022/03/03 07:44:43;;;;;;;0.70;0.70;;;;;;;;;;4996360;28;20073;-83
2022/03/03 07:47:09;;;;;;;0.40;0.40;;;;;;;;;;4994363;28;20393;-83
2022/03/03 07:49:38;;;;;;;1.55;1.27;;;;;;;;;;4995319;28;20440;-82
2022/03/03 07:52:05;;;;;;;0.80;0.80;;;;;;;;;;4994287;28;20026;-84
2022/03/03 07:54:31;;;;;;;0.55;0.55;;;;;;;;;;5003543;28;20109;-82
2022/03/03 07:57:00;;;;;;;2.10;1.95;;;;;;;;;;4988594;28;20030;-80
2022/03/03 07:59:29;;;;;;;1.73;0.52;;;;;;;;;;4995940;28;20034;-81
2022/03/03 08:01:56;;;;;;;1.25;1.13;;;;;;;;;;4994332;28;20670;-83
2022/03/03 08:04:27;;;;;;;0.22;0.22;;;;;;;;;;4994458;28;20034;-84
2022/03/03 08:06:57;;;;;;;0.90;0.90;;;;;;;;;;4976808;28;20055;-83
2022/03/03 08:09:22;;;;;;;1.30;0.75;;;;;;;;;;4994631;28;20129;-83
2022/03/03 08:11:51;;;;;;;0.63;0.63;;;;;;;;;;4994914;28;20419;-82
2022/03/03 08:14:20;;;;;;;0.57;0.57;;;;;;;;;;4994084;28;20030;-84
2022/03/03 08:16:46;;;;;;;0.57;0.57;;;;;;;;;;4994442;28;20448;-81
2022/03/03 08:19:14;;;;;;;1.48;1.38;;;;;;;;;;4994099;28;20054;-82
2022/03/03 08:21:46;;;;;;;1.75;1.50;;;;;;;;;;4993925;28;20085;-83
2022/03/03 08:24:11;;;;;;;1.25;1.15;;;;;;;;;;4993865;28;20080;-83
2022/03/03 08:26:40;;;;;;;1.00;0.68;;;;;;;;;;4994878;28;20034;-83
2022/03/03 08:29:08;;;;;;;1.35;1.25;;;;;;;;;;4993907;28;20026;-82
2022/03/03 08:31:40;;;;;;;0.75;0.75;;;;;;;;;;4995046;28;20022;-82
2022/03/03 08:34:36;;;;;;;4.65;2.97;;;;;;;;;;5009626;28;20105;-83
2022/03/03 08:37:03;;;;;;;3.13;1.52;;;;;;;;;;4994586;28;20026;-83
2022/03/03 08:39:39;;;;;;;1.92;1.58;;;;;;;;;;4993384;28;20029;-82
2022/03/03 08:42:08;;;;;;;2.60;1.92;;;;;;;;;;4990180;28;20030;-81
2022/03/03 08:44:38;;;;;;;1.77;1.67;;;;;;;;;;4973763;28;20037;-84
2022/03/03 08:47:06;;;;;;;2.13;1.65;;;;;;;;;;4993274;28;20480;-83
2022/03/03 08:49:39;;;;;;;2.28;1.70;;;;;;;;;;4994570;28;20121;-81
2022/03/03 08:52:08;;;;;;;2.28;2.08;;;;;;;;;;4992953;28;20030;-81
2022/03/03 08:54:34;;;;;;;2.53;1.55;;;;;;;;;;4994171;28;20458;-84
2022/03/03 08:57:06;;;;;;;3.42;1.92;;;;;;;;;;4994224;28;20041;-82
2022/03/03 08:59:31;;;;;;;2.10;1.95;;;;;;;;;;4990525;28;20461;-83
2022/03/03 09:01:59;;;;;;;4.97;2.25;;;;;;;;;;4993201;28;20053;-83
2022/03/03 09:04:25;;;;;;;2.95;1.38;;;;;;;;;;4994717;28;20234;-83
2022/03/03 09:06:57;;;;;;;3.10;2.13;;;;;;;;;;4993242;28;20472;-80
2022/03/03 09:12:25;;;;;;;3.88;2.55;;;;;;;;;;4994040;28;20026;-83
2022/03/03 09:14:59;;;;;;;3.85;2.60;;;;;;;;;;4989366;28;20412;-83
2022/03/03 09:17:35;;;;;;;2.00;1.90;;;;;;;;;;4996435;28;20437;-84
2022/03/03 09:20:39;;;;;;;4.72;2.35;;;;;;;;;;4993218;28;20104;-82
2022/03/03 09:23:04;;;;;;;;;;;;;;;;;;4994650;28;20038;-82
2022/03/03 09:25:36;;;;;;;2.50;2.25;;;;;;;;;;4994118;28;19964;-82
2022/03/03 09:28:10;;;;;;;3.22;2.17;;;;;;;;;;4991868;28;20038;-82
2022/03/03 09:30:36;;;;;;;6.75;2.70;;;;;;;;;;4993915;28;20092;-82
2022/03/03 09:33:14;;;;;;;2.90;1.90;;;;;;;;;;4993871;28;20026;-82
2022/03/03 09:35:39;;;;;;;1.98;1.42;;;;;;;;;;4993331;28;20022;-81
2022/03/03 09:38:05;;;;;;;5.30;1.83;;;;;;;;;;4993575;28;20422;-82
2022/03/03 09:40:30;;;;;;;2.47;2.28;;;;;;;;;;4995306;28;20109;-83
2022/03/03 09:43:01;;;;;;;1.50;1.40;;;;;;;;;;4978026;28;20022;-82
2022/03/03 09:45:27;;;;;;;6.00;2.45;;;;;;;;;;4981932;28;20053;-83
2022/03/03 09:47:54;;;;;;;5.35;2.28;;;;;;;;;;4995068;28;20426;-81
2022/03/03 09:50:20;;;;;;;4.07;2.22;;;;;;;;;;4992036;28;20093;-79
2022/03/03 09:52:51;;;;;;;1.90;1.73;;;;;;;;;;4992743;28;20524;-82
2022/03/03 09:55:20;;;;;;;5.10;2.85;;;;;;;;;;4986438;28;20085;-82
2022/03/03 09:57:51;;;;;;;6.10;2.60;;;;;;;;;;4985657;28;20038;-81
2022/03/03 10:00:25;;;;;;;7.20;2.75;;;;;;;;;;4974533;28;20035;-82
2022/03/03 10:03:09;;;;;;;2.50;2.03;;;;;;;;;;4979355;28;20036;-81
2022/03/03 10:05:48;;;;;;;1.92;1.00;;;;;;;;;;4992820;28;20069;-83
2022/03/03 10:08:19;;;;;;;1.42;1.33;;;;;;;;;;4986444;28;20026;-82
2022/03/03 10:11:09;;;;;;;2.45;2.13;;;;;;;;;;4977332;28;20026;-79
2022/03/03 10:13:53;;;;;;;2.20;1.70;;;;;;;;;;4969995;28;20034;-82
2022/03/03 10:16:24;;;;;;;1.23;1.13;;;;;;;;;;4991217;28;20501;-79
2022/03/03 10:19:03;;;;;;;3.58;1.38;;;;;;;;;;4987748;28;20022;-81
2022/03/03 10:21:30;;;;;;;1.50;1.40;;;;;;;;;;4991768;28;20030;-82
2022/03/03 10:23:57;;;;;;;1.35;1.25;;;;;;;;;;4988036;28;20030;-80
2022/03/03 10:26:38;;;;;;;2.13;1.70;;;;;;;;;;4998168;28;20354;-80
2022/03/03 10:29:36;;;;;;;3.42;1.52;;;;;;;;;;4977793;28;20117;-79
2022/03/03 10:32:02;;;;;;;2.00;1.73;;;;;;;;;;4988166;28;20030;-83
2022/03/03 10:34:28;;;;;;;1.52;1.42;;;;;;;;;;4991424;28;20399;-83
2022/03/03 10:37:01;;;;;;;3.05;1.92;;;;;;;;;;4994265;28;20026;-80
2022/03/03 10:39:48;;;;;;;2.10;1.67;;;;;;;;;;4988636;28;20493;-79
2022/03/03 10:42:51;;;;;;;6.38;2.80;;;;;;;;;;4986989;28;20483;-80
2022/03/03 10:45:27;;;;;;;2.17;1.63;;;;;;;;;;4978625;28;20049;-82
2022/03/03 10:48:01;;;;;;;7.03;2.38;;;;;;;;;;4993676;28;20041;-83
2022/03/03 10:50:51;;;;;;;1.67;1.58;;;;;;;;;;4995204;28;20031;-81
2022/03/03 10:53:17;;;;;;;3.58;2.25;;;;;;;;;;4977882;28;20138;-79
2022/03/03 10:56:01;;;;;;;1.80;1.67;;;;;;;;;;4996073;28;20074;-81
2022/03/03 10:58:47;;;;;;;1.70;1.60;;;;;;;;;;4992337;28;20027;-83
2022/03/03 11:01:14;;;;;;;2.28;1.70;;;;;;;;;;4979105;28;20121;-83
2022/03/03 11:03:41;;;;;;;1.45;1.35;;;;;;;;;;4976196;28;20029;-83
2022/03/03 11:06:06;;;;;;;2.25;2.05;;;;;;;;;;4995163;28;20029;-83
2022/03/03 11:08:33;;;;;;;3.95;1.92;;;;;;;;;;4993165;28;20445;-83
2022/03/03 11:10:59;;;;;;;2.55;2.35;;;;;;;;;;4978444;28;20050;-87
2022/03/03 11:13:47;;;;;;;3.72;1.58;;;;;;;;;;4978553;28;20346;-84
2022/03/03 11:16:16;;;;;;;2.55;2.20;;;;;;;;;;4998542;28;20030;-87
2022/03/03 11:18:41;;;;;;;2.88;1.92;;;;;;;;;;4977981;28;20027;-86
2022/03/03 11:21:08;;;;;;;2.08;1.55;;;;;;;;;;4978076;28;20365;-86
2022/03/03 11:23:43;;;;;;;1.30;1.20;;;;;;;;;;4993850;28;20029;-85
2022/03/03 11:26:18;;;;;;;6.18;1.90;;;;;;;;;;4978841;28;20049;-86
2022/03/03 11:28:58;;;;;;;1.42;1.30;;;;;;;;;;4975834;28;20381;-84
2022/03/03 11:31:30;;;;;;;5.88;2.55;;;;;;;;;;4979094;28;20033;-85
2022/03/03 11:34:30;;;;;;;3.00;1.77;;;;;;;;;;4978832;28;20042;-86
2022/03/03 11:36:59;;;;;;;5.13;2.33;;;;;;;;;;4994003;28;20040;-85
2022/03/03 11:39:56;;;;;;;1.83;1.73;;;;;;;;;;4995102;28;20031;-85
2022/03/03 11:42:26;;;;;;;3.03;2.10;;;;;;;;;;4990873;28;20141;-86
2022/03/03 11:45:07;;;;;;;1.17;1.00;;;;;;;;;;4994719;28;20547;-87
2022/03/03 11:47:37;;;;;;;2.67;2.05;;;;;;;;;;4993554;28;20331;-85
2022/03/03 11:50:16;;;;;;;1.60;1.50;;;;;;;;;;4977406;28;20030;-85
2022/03/03 11:52:43;;;;;;;1.98;1.77;;;;;;;;;;4993443;28;20061;-83
2022/03/03 11:55:30;;;;;;;3.92;2.17;;;;;;;;;;4995202;28;20033;-79
2022/03/03 11:58:21;;;;;;;3.28;1.77;;;;;;;;;;4978024;28;20038;-83
2022/03/03 12:01:03;;;;;;;2.78;1.42;;;;;;;;;;4988814;28;20031;-84
2022/03/03 12:03:58;;;;;;;1.25;1.15;;;;;;;;;;4993873;28;20060;-85
2022/03/03 12:06:47;;;;;;;2.67;1.65;;;;;;;;;;4995654;28;20062;-85
2022/03/03 12:09:19;;;;;;;2.20;1.75;;;;;;;;;;4991251;28;20033;-83
2022/03/03 12:11:47;;;;;;;1.67;1.48;;;;;;;;;;4993310;28;20496;-83
2022/03/03 12:14:38;;;;;;;1.42;1.13;;;;;;;;;;4976415;28;20038;-82
2022/03/03 12:17:46;;;;;;;2.25;1.08;;;;;;;;;;4991193;28;20068;-79
2022/03/03 12:20:23;;;;;;;1.70;1.58;;;;;;;;;;4991303;28;20038;-83
2022/03/03 12:23:23;;;;;;;3.50;1.77;;;;;;;;;;4993590;28;20030;-82
2022/03/03 12:25:50;;;;;;;3.30;1.77;;;;;;;;;;4989738;28;20042;-85
2022/03/03 12:31:40;;;;;;;1.67;1.48;;;;;;;;;;4994741;28;20111;-85
2022/03/03 12:34:25;;;;;;;1.40;1.30;;;;;;;;;;4993929;28;20442;-81
2022/03/03 12:36:55;;;;;;;2.67;1.77;;;;;;;;;;4978073;28;20046;-84
2022/03/03 12:39:20;;;;;;;1.75;1.65;;;;;;;;;;4974190;28;20089;-83
2022/03/03 12:41:56;;;;;;;3.05;1.75;;;;;;;;;;4993219;28;20093;-84
2022/03/03 12:44:21;;;;;;;3.47;2.17;;;;;;;;;;4991416;28;20030;-86
2022/03/03 12:46:59;;;;;;;1.85;1.20;;;;;;;;;;4993550;28;20027;-84
2022/03/03 12:49:24;;;;;;;1.75;1.65;;;;;;;;;;4993984;28;20026;-88
2022/03/03 12:51:52;;;;;;;3.85;2.55;;;;;;;;;;4974147;28;20468;-85
2022/03/03 12:54:22;;;;;;;3.78;2.10;;;;;;;;;;4994083;28;20030;-81
2022/03/03 12:57:01;;;;;;;1.25;1.17;;;;;;;;;;4994387;28;20026;-85
2022/03/03 12:59:32;;;;;;;2.28;1.95;;;;;;;;;;4996766;28;20038;-82
2022/03/03 13:02:00;;;;;;;1.17;1.08;;;;;;;;;;4992419;28;20030;-82
2022/03/03 13:04:26;;;;;;;2.60;2.33;;;;;;;;;;4999915;28;20030;-84
2022/03/03 13:07:11;;;;;;;4.68;1.80;;;;;;;;;;5003009;28;20080;-80
2022/03/03 13:09:37;;;;;;;1.92;1.13;;;;;;;;;;4992988;28;20046;-85
2022/03/03 13:12:02;;;;;;;1.55;1.45;;;;;;;;;;4997924;28;20034;-81
2022/03/03 13:14:30;;;;;;;0.85;0.75;;;;;;;;;;4997290;28;20422;-83
2022/03/03 13:16:55;;;;;;;2.40;2.00;;;;;;;;;;4992746;28;20084;-83
2022/03/03 13:19:21;;;;;;;3.15;1.50;;;;;;;;;;4994783;28;20039;-84
2022/03/03 13:21:46;;;;;;;2.15;1.25;;;;;;;;;;4992953;28;20042;-83
2022/03/03 13:24:11;;;;;;;1.13;1.02;;;;;;;;;;4994086;28;20054;-81
2022/03/03 13:26:49;;;;;;;3.85;1.42;;;;;;;;;;4992840;28;20125;-81
2022/03/03 13:29:38;;;;;;;1.27;1.17;;;;;;;;;;4993077;28;20038;-85
2022/03/03 13:32:13;;;;;;;1.15;0.82;;;;;;;;;;4992936;28;20116;-83
2022/03/03 13:34:51;;;;;;;2.25;1.33;;;;;;;;;;4994287;28;20033;-82
2022/03/03 13:37:22;;;;;;;2.50;0.90;;;;;;;;;;4997327;28;20131;-83
2022/03/03 13:39:47;;;;;;;2.22;2.03;;;;;;;;;;4993500;28;20085;-83
2022/03/03 13:42:15;;;;;;;1.65;1.55;;;;;;;;;;4996855;28;20101;-85
2022/03/03 13:44:55;;;;;;;1.38;1.27;;;;;;;;;;4994399;28;20050;-84
2022/03/03 13:47:32;;;;;;;4.45;1.80;;;;;;;;;;4998751;28;20030;-83
2022/03/03 13:49:58;;;;;;;0.98;0.93;;;;;;;;;;5000016;28;20496;-84
2022/03/03 13:52:26;;;;;;;2.78;2.00;;;;;;;;;;5000951;28;20026;-83
2022/03/03 13:54:54;;;;;;;2.58;1.38;;;;;;;;;;5003244;28;20033;-84
2022/03/03 13:57:51;;;;;;;1.05;0.77;;;;;;;;;;5004062;28;20034;-84
2022/03/03 14:00:30;;;;;;;1.60;0.98;;;;;;;;;;5006471;28;20454;-83
2022/03/03 14:03:05;;;;;;;0.73;0.73;;;;;;;;;;4989411;28;20080;-83
2022/03/03 14:05:31;;;;;;;1.27;1.17;;;;;;;;;;4999513;28;20442;-83
2022/03/03 14:07:59;;;;;;;1.75;1.40;;;;;;;;;;4993744;28;20041;-86
2022/03/03 14:10:28;;;;;;;1.50;1.40;;;;;;;;;;4992841;28;20041;-87
2022/03/03 14:13:04;;;;;;;1.40;1.27;;;;;;;;;;4993643;28;20034;-84
2022/03/03 14:15:54;;;;;;;1.40;1.30;;;;;;;;;;4995301;28;20030;-87
2022/03/03 14:18:21;;;;;;;1.40;0.90;;;;;;;;;;4978997;28;20080;-87
2022/03/03 14:20:50;;;;;;;43.28;31.13;;;;;;;;;;4992321;28;20015;-84
2022/03/03 14:23:22;;;;;;;5.30;3.28;;;;;;;;;;4995231;28;20034;-83
2022/03/03 14:25:48;;;;;;;2.40;1.55;;;;;;;;;;4995205;28;20038;-86
2022/03/03 14:28:15;;;;;;;0.93;0.93;;;;;;;;;;4992062;28;20058;-88
2022/03/03 14:30:40;;;;;;;1.55;1.20;;;;;;;;;;4993163;28;20030;-85
2022/03/03 14:33:08;;;;;;;0.68;0.68;;;;;;;;;;4997244;28;20030;-85
2022/03/03 14:35:33;;;;;;;2.10;1.92;;;;;;;;;;4996380;28;20524;-89
2022/03/03 14:38:01;;;;;;;1.55;1.30;;;;;;;;;;4996477;28;20026;-81
2022/03/03 14:40:26;;;;;;;2.05;1.75;;;;;;;;;;4995917;28;20540;-84
2022/03/03 14:42:52;;;;;;;2.03;1.17;;;;;;;;;;4994379;28;20105;-84
2022/03/03 14:45:17;;;;;;;0.50;0.50;;;;;;;;;;4995765;28;20030;-81
2022/03/03 14:47:43;;;;;;;4.07;1.85;;;;;;;;;;4995597;28;20045;-83
2022/03/03 14:50:11;;;;;;;1.42;1.15;;;;;;;;;;4996265;28;20481;-83
2022/03/03 14:52:36;;;;;;;4.20;1.88;;;;;;;;;;4992889;28;20520;-80
2022/03/03 14:55:06;;;;;;;1.25;1.15;;;;;;;;;;4996065;28;20030;-79
2022/03/03 14:57:32;;;;;;;3.88;2.88;;;;;;;;;;4993944;28;20057;-80
2022/03/03 14:59:57;;;;;;;1.25;1.15;;;;;;;;;;4995843;28;20072;-80
2022/03/03 15:02:25;;;;;;;1.83;0.88;;;;;;;;;;4996546;28;20030;-80
2022/03/03 15:04:52;;;;;;;0.60;0.60;;;;;;;;;;4997223;28;20027;-81